OPA Logo
 
ASOS:
At:2019.08.23 1315 UTC
Wind:
Viz: 10 mile(s)
Sky: clear
Temp: 48 F (9 C)
DewP: 41 F (5 C)
RH: 75%
Baro: 30.01 in.
ob: KBDN 231315Z AUTO 00000KT 10SM CLR 09/05 A3001 RMK AO2

ASOS:
At:2019.08.23 1256 UTC
Wind:
Viz: 10 mile(s)
Sky: clear
Temp: 41.0 F (5.0 C)
DewP: 37.9 F (3.3 C)
RH: 88%
Baro: 30.01 in.
ob: KRDM 231256Z 00000KT 10SM CLR 05/03 A3001 RMK AO2 SLP149 T00500033 PNO
Apache-SSL Logo

Valid HTML 4.01!

Central Oregon OPA Chapter

Sectional Charts


If you want to download the latest sectionals you can get them for free directly from FAAjust click on 'Free Digital Products'.

CF -16, Idaoha, Oregon, Washington WAC chart - 14 Jan 2010 North , South

Klamath Sectional 83 - 23 Sep 2010 North , South

San Francisco Sectional 76 - 16 Mar 2006 60MB ZIP

San Francisco Terminal Area Charts 68 - 16 Mar 2006 27MB ZIP

Seattle Sectional 79 - 3 Jun 2010 North , South , Terminal Area Chart 74 , VFR Flyways 74 ,

Seattle Terminal Area Charts 65 - 22 Dec 2005 23MB ZIP

Approach Plates


If you want to download the latest approach plates you can get them directly from NACO.

Take Off Minimums - 11 May 2006 PDF

Alternate Minimums - 11 May 2006 PDF

Bend RNAV RWY 16 - 11 May 2006 PDF

Bend VOR/DME RWY 16 - 11 May 2006 PDF

Redmond ILS 22 - 11 May 2006 PDF

Redmond RNAV 28 - 11 May 2006 PDF

Redmond VOR/DME 22 - 11 May 2006 PDF

Redmond VOR A - 11 May 2006 PDF

Redmond NDB/GPS 22 - 11 May 2006 PDF

Redmond GPS 10 - 11 May 2006 PDF

Redmond Airport Diagram - 11 May 2006 PDF


Web page by: gem@rellim.com